Terminal Aerodrome Forecast
Issued by NWS

Home | Current Version | Previous Version | Text Only | Print | Product List | Glossary On
Versions: 1 2 3 4 5 6 7 8 9 10 11 12 13 14 15 16 17 18 19 20 21 22 23
738
FTUS41 KPBZ 282321
TAFZZV
TAF
KZZV 282321Z 2900/2924 00000KT P6SM VCSH BKN035
     FM290400 00000KT 5SM BR VCSH SCT035
     FM290600 32003KT 2SM BR BKN007
     FM291400 29003KT P6SM BKN015
     FM291600 29003KT P6SM BKN025
     FM291800 29003KT P6SM VCSH BKN035=

USA.gov is the U.S. government's official web portal to all federal, state and local government web resources and services.